Time;durP1;ratioP1;P1;durP2;ratioP2;P2;SDS_P1;SDS_P2;PMS_P1;PMS_P2;Temp;Humidity;BMP_temperature;BMP_pressure;BME280_temperature;BME280_humidity;BME280_pressure;Samples;Min_cycle;Max_cycle;Signal;HPM_P1;HPM_P2
2022/06/28 00:00:09;;;;;;;6.78;5.22;;;17.30;99.90;;;;;;4955624;28;20038;-77
2022/06/28 00:02:35;;;;;;;5.13;4.63;;;17.30;99.90;;;;;;4967486;28;20194;-78
2022/06/28 00:05:00;;;;;;;6.65;4.40;;;17.30;99.90;;;;;;4956796;28;20039;-76
2022/06/28 00:07:26;;;;;;;6.70;4.60;;;17.40;99.90;;;;;;4965650;28;20030;-76
2022/06/28 00:09:52;;;;;;;6.45;4.95;;;17.30;99.90;;;;;;4957292;28;20051;-76
2022/06/28 00:12:18;;;;;;;7.28;5.13;;;17.30;99.90;;;;;;4938025;29;20031;-76
2022/06/28 00:17:27;;;;;;;6.07;4.88;;;17.30;99.90;;;;;;4942732;28;20038;-76
2022/06/28 00:19:53;;;;;;;7.00;5.05;;;17.30;99.90;;;;;;4955503;29;20384;-76
2022/06/28 00:22:18;;;;;;;6.22;4.93;;;17.30;99.90;;;;;;4950775;28;20127;-76
2022/06/28 00:24:44;;;;;;;6.15;4.55;;;17.30;99.90;;;;;;4953844;29;20596;-76
2022/06/28 00:27:10;;;;;;;6.80;4.82;;;17.30;99.90;;;;;;4954821;28;20066;-76
2022/06/28 00:29:35;;;;;;;8.20;4.53;;;17.30;99.90;;;;;;4954947;28;20520;-76
2022/06/28 00:32:01;;;;;;;7.90;4.88;;;17.30;99.90;;;;;;4955130;28;20055;-77
2022/06/28 00:34:26;;;;;;;8.32;5.28;;;17.30;99.90;;;;;;4954990;28;20385;-77
2022/06/28 00:36:52;;;;;;;7.80;4.80;;;17.30;99.90;;;;;;4954722;28;20043;-77
2022/06/28 00:39:17;;;;;;;5.60;4.93;;;17.30;99.90;;;;;;4955097;28;20035;-77
2022/06/28 00:41:43;;;;;;;8.60;5.75;;;17.30;99.90;;;;;;4954724;28;20023;-77
2022/06/28 00:44:13;;;;;;;5.75;5.05;;;17.30;99.90;;;;;;4954885;29;20030;-76
2022/06/28 00:46:39;;;;;;;8.50;5.18;;;17.30;99.90;;;;;;4954684;28;20023;-77
2022/06/28 00:49:05;;;;;;;7.10;5.35;;;17.30;99.90;;;;;;4936725;29;20485;-77
2022/06/28 00:51:32;;;;;;;9.65;5.60;;;17.20;99.90;;;;;;4954810;28;20038;-77
2022/06/28 00:53:59;;;;;;;6.88;5.38;;;17.20;99.90;;;;;;4954871;28;20407;-77
2022/06/28 00:56:24;;;;;;;7.30;5.80;;;17.20;99.90;;;;;;4954594;28;20610;-77
2022/06/28 00:58:52;;;;;;;6.70;5.75;;;17.20;99.90;;;;;;4954306;29;20027;-76
2022/06/28 01:01:19;;;;;;;8.45;5.65;;;17.10;99.90;;;;;;4954504;28;20106;-76
2022/06/28 01:03:45;;;;;;;5.80;5.20;;;17.10;99.90;;;;;;4954329;28;20031;-76
2022/06/28 01:06:11;;;;;;;9.02;5.50;;;17.10;99.90;;;;;;4954473;28;20023;-77
2022/06/28 01:08:37;;;;;;;6.18;4.65;;;17.00;99.90;;;;;;4954443;28;20033;-77
2022/06/28 01:11:18;;;;;;;9.18;5.32;;;17.00;99.90;;;;;;4954345;28;20055;-76
2022/06/28 01:13:50;;;;;;;5.95;5.10;;;17.00;99.90;;;;;;4952900;28;20154;-77
2022/06/28 01:16:18;;;;;;;7.13;5.05;;;17.00;99.90;;;;;;4954165;28;20030;-76
2022/06/28 01:18:44;;;;;;;9.52;5.35;;;16.90;99.90;;;;;;4954172;28;20477;-76
2022/06/28 01:21:12;;;;;;;8.98;5.47;;;16.90;99.90;;;;;;4954035;28;20019;-76
2022/06/28 01:23:38;;;;;;;7.55;5.10;;;16.80;99.90;;;;;;4948626;28;20035;-76
2022/06/28 01:26:04;;;;;;;5.50;4.75;;;16.90;99.90;;;;;;4951494;28;20039;-76
2022/06/28 01:28:31;;;;;;;6.32;5.35;;;16.90;99.90;;;;;;4954005;28;20468;-76
2022/06/28 01:31:00;;;;;;;6.05;4.68;;;16.80;99.90;;;;;;4937896;28;20118;-76
2022/06/28 01:33:26;;;;;;;6.35;5.00;;;16.80;99.90;;;;;;4965633;28;20023;-76
2022/06/28 01:35:51;;;;;;;6.97;5.00;;;16.80;99.90;;;;;;4953810;29;20485;-77
2022/06/28 01:38:17;;;;;;;7.97;5.53;;;16.80;99.90;;;;;;4953548;28;20020;-76
2022/06/28 01:40:46;;;;;;;7.10;5.50;;;16.70;99.90;;;;;;4953952;29;20027;-76
2022/06/28 01:43:14;;;;;;;6.35;5.13;;;16.70;99.90;;;;;;4953535;28;20038;-77
2022/06/28 01:45:41;;;;;;;7.68;5.40;;;16.70;99.90;;;;;;4953700;28;20047;-76
2022/06/28 01:48:07;;;;;;;6.75;5.25;;;16.70;99.90;;;;;;4953548;28;20031;-76
2022/06/28 01:50:33;;;;;;;8.27;5.78;;;16.60;99.90;;;;;;4953463;29;20027;-76
2022/06/28 01:52:58;;;;;;;5.85;4.97;;;16.70;99.90;;;;;;4953668;28;20058;-76
2022/06/28 01:55:24;;;;;;;7.70;5.05;;;16.60;99.90;;;;;;4953424;28;20130;-76
2022/06/28 01:57:49;;;;;;;7.50;5.35;;;16.60;99.90;;;;;;4952294;28;20031;-77
2022/06/28 02:00:15;;;;;;;5.93;5.32;;;16.60;99.90;;;;;;4952349;28;20026;-76
2022/06/28 02:02:42;;;;;;;7.20;5.60;;;16.60;99.90;;;;;;4953131;28;20019;-76
2022/06/28 02:05:08;;;;;;;6.05;5.45;;;16.60;99.90;;;;;;4953256;28;20039;-76
2022/06/28 02:07:34;;;;;;;7.63;5.70;;;16.60;99.90;;;;;;4953100;28;20031;-76
2022/06/28 02:09:59;;;;;;;8.25;5.53;;;16.60;99.90;;;;;;4952727;28;20027;-76
2022/06/28 02:12:28;;;;;;;8.13;5.50;;;16.60;99.90;;;;;;4953114;28;20042;-76
2022/06/28 02:14:57;;;;;;;7.38;5.43;;;16.60;99.90;;;;;;4952947;28;20543;-76
2022/06/28 02:17:23;;;;;;;7.13;5.80;;;16.60;99.90;;;;;;4952636;28;20381;-76
2022/06/28 02:19:49;;;;;;;7.13;5.60;;;16.60;99.90;;;;;;4953057;28;20030;-76
2022/06/28 02:22:15;;;;;;;6.50;5.85;;;16.60;99.90;;;;;;4934547;29;20031;-76
2022/06/28 02:24:40;;;;;;;7.35;6.30;;;16.60;99.90;;;;;;4931613;29;20026;-76
2022/06/28 02:27:06;;;;;;;7.03;5.78;;;16.60;99.90;;;;;;4952530;28;20125;-77
2022/06/28 02:29:31;;;;;;;8.50;5.80;;;16.60;99.90;;;;;;4952734;28;20034;-77
2022/06/28 02:31:57;;;;;;;7.45;5.80;;;16.60;99.90;;;;;;4952723;28;20019;-77
2022/06/28 02:42:35;;;;;;;9.18;5.80;;;16.50;99.90;;;;;;4952206;28;20110;-77
2022/06/28 02:45:01;;;;;;;9.32;5.82;;;16.50;99.90;;;;;;4952184;28;20525;-77
2022/06/28 02:47:26;;;;;;;7.53;5.50;;;16.50;99.90;;;;;;4952441;28;20373;-77
2022/06/28 02:49:52;;;;;;;6.65;6.03;;;16.50;99.90;;;;;;4952360;29;20046;-77
2022/06/28 02:52:18;;;;;;;9.00;6.22;;;16.60;99.90;;;;;;4952318;28;20094;-77
2022/06/28 02:54:43;;;;;;;6.35;5.75;;;16.50;99.90;;;;;;4952283;28;20429;-77
2022/06/28 02:57:09;;;;;;;14.43;6.00;;;16.50;99.90;;;;;;4952067;28;20420;-77
2022/06/28 02:59:34;;;;;;;9.23;5.70;;;16.50;99.90;;;;;;4952345;28;20773;-77
2022/06/28 03:02:00;;;;;;;9.85;5.45;;;16.50;99.90;;;;;;4952338;28;20365;-77
2022/06/28 03:04:25;;;;;;;9.68;6.10;;;16.60;99.90;;;;;;4952419;29;20024;-77
2022/06/28 03:06:51;;;;;;;7.80;5.82;;;16.60;99.90;;;;;;4952538;29;20038;-77
2022/06/28 03:09:16;;;;;;;9.65;5.88;;;16.60;99.90;;;;;;4961186;28;20166;-77
2022/06/28 03:11:42;;;;;;;7.25;5.28;;;16.60;99.90;;;;;;4958524;28;20031;-77
2022/06/28 03:14:08;;;;;;;6.78;5.70;;;16.60;99.90;;;;;;4956201;28;20020;-77
2022/06/28 03:16:33;;;;;;;6.60;5.72;;;16.60;99.90;;;;;;4956083;28;20027;-77
2022/06/28 03:18:59;;;;;;;7.90;6.05;;;16.70;99.90;;;;;;4955944;28;20499;-76
2022/06/28 03:21:24;;;;;;;6.03;5.40;;;16.60;99.90;;;;;;4956262;28;20345;-75
2022/06/28 03:23:50;;;;;;;6.63;5.20;;;16.70;99.90;;;;;;4950418;29;20046;-76
2022/06/28 03:26:16;;;;;;;7.18;5.50;;;16.70;99.90;;;;;;4954761;28;20225;-76
2022/06/28 03:28:41;;;;;;;7.70;5.93;;;16.70;99.90;;;;;;4956087;28;20024;-76
2022/06/28 03:31:07;;;;;;;7.18;5.57;;;16.70;99.90;;;;;;4956021;28;20041;-76
2022/06/28 03:33:32;;;;;;;11.40;6.22;;;16.70;99.90;;;;;;4956294;28;20030;-76
2022/06/28 03:35:58;;;;;;;8.05;6.03;;;16.70;99.90;;;;;;4955575;28;20067;-76
2022/06/28 03:38:23;;;;;;;8.63;6.05;;;16.70;99.90;;;;;;4955981;28;20038;-76
2022/06/28 03:40:49;;;;;;;13.07;5.70;;;16.70;99.90;;;;;;4956102;28;20086;-76
2022/06/28 03:43:15;;;;;;;10.93;6.30;;;16.70;99.90;;;;;;4955732;28;20429;-76
2022/06/28 03:45:40;;;;;;;9.57;6.60;;;16.70;99.90;;;;;;4956020;28;20027;-76
2022/06/28 03:48:06;;;;;;;9.38;6.18;;;16.70;99.90;;;;;;4955866;28;20472;-76
2022/06/28 03:50:32;;;;;;;10.73;6.03;;;16.70;99.90;;;;;;4955856;28;20054;-76
2022/06/28 03:52:57;;;;;;;8.82;6.18;;;16.70;99.90;;;;;;4955383;28;20055;-76
2022/06/28 03:55:23;;;;;;;9.55;6.50;;;16.70;99.90;;;;;;4955643;28;20082;-76
2022/06/28 03:57:48;;;;;;;10.38;6.20;;;16.70;99.90;;;;;;4956002;28;20052;-77
2022/06/28 04:00:14;;;;;;;9.35;6.70;;;16.70;99.90;;;;;;4955546;28;20404;-77
2022/06/28 04:02:40;;;;;;;9.93;6.15;;;16.70;99.90;;;;;;4955649;28;20469;-77
2022/06/28 04:05:06;;;;;;;14.02;6.15;;;16.80;99.90;;;;;;4955650;28;20086;-77
2022/06/28 04:07:31;;;;;;;10.32;6.40;;;16.80;99.90;;;;;;4955618;28;20439;-76
2022/06/28 04:09:57;;;;;;;9.85;5.90;;;16.80;99.90;;;;;;4955181;29;20365;-77
2022/06/28 04:12:22;;;;;;;9.57;6.10;;;16.80;99.90;;;;;;4954982;29;20115;-78
2022/06/28 04:14:48;;;;;;;7.65;6.00;;;16.80;99.90;;;;;;4950036;28;20071;-77
2022/06/28 04:17:14;;;;;;;8.95;6.07;;;16.80;99.90;;;;;;4952373;29;20031;-77
2022/06/28 04:19:39;;;;;;;9.93;6.32;;;16.90;99.90;;;;;;4948676;29;20077;-72
2022/06/28 04:22:05;;;;;;;8.05;5.93;;;16.90;99.90;;;;;;4952258;28;20039;-72
2022/06/28 04:24:31;;;;;;;13.82;6.50;;;16.90;99.90;;;;;;4950377;28;20857;-72
2022/06/28 04:26:56;;;;;;;9.85;6.60;;;16.90;99.90;;;;;;4952682;28;20106;-72
2022/06/28 04:29:22;;;;;;;10.23;7.00;;;16.90;99.90;;;;;;4953149;29;20469;-72
2022/06/28 04:31:48;;;;;;;12.02;7.28;;;17.00;99.90;;;;;;4953249;29;20023;-72
2022/06/28 04:34:13;;;;;;;12.23;7.28;;;17.00;99.90;;;;;;4936278;29;20453;-71
2022/06/28 04:36:39;;;;;;;7.70;6.45;;;17.10;99.90;;;;;;4953314;28;20031;-71
2022/06/28 04:39:06;;;;;;;14.07;6.90;;;17.10;99.90;;;;;;4953197;29;20027;-71
2022/06/28 04:41:31;;;;;;;10.35;7.00;;;17.10;99.90;;;;;;4952816;29;20523;-70
2022/06/28 04:43:57;;;;;;;9.35;6.40;;;17.10;99.90;;;;;;4950399;28;20031;-71
2022/06/28 04:46:22;;;;;;;8.98;6.85;;;17.20;99.90;;;;;;4953548;28;20031;-71
2022/06/28 04:48:48;;;;;;;8.32;6.57;;;17.20;99.90;;;;;;4954388;28;20027;-71
2022/06/28 04:51:14;;;;;;;10.93;7.00;;;17.20;99.90;;;;;;4953375;28;20119;-71
2022/06/28 04:53:42;;;;;;;9.50;6.80;;;17.20;99.90;;;;;;4952246;28;20106;-71
2022/06/28 04:56:08;;;;;;;8.82;6.85;;;17.30;99.90;;;;;;4952995;28;20031;-72
2022/06/28 04:58:34;;;;;;;8.95;6.63;;;17.30;99.90;;;;;;4953704;29;20542;-72
2022/06/28 05:01:00;;;;;;;12.73;7.03;;;17.30;99.90;;;;;;4953116;29;20031;-71
2022/06/28 05:03:26;;;;;;;11.68;7.20;;;17.40;99.90;;;;;;4955127;29;20589;-69
2022/06/28 05:05:51;;;;;;;11.57;6.32;;;17.40;99.90;;;;;;4954185;29;20106;-69
2022/06/28 05:08:17;;;;;;;11.48;6.82;;;17.50;99.90;;;;;;4950179;29;20028;-70
2022/06/28 05:10:42;;;;;;;10.30;6.20;;;17.60;99.90;;;;;;4955502;28;20093;-69
2022/06/28 05:13:08;;;;;;;7.90;6.38;;;17.60;99.90;;;;;;4955431;29;20027;-69
2022/06/28 05:15:34;;;;;;;10.45;6.10;;;17.60;99.90;;;;;;4955542;29;20130;-69
2022/06/28 05:17:59;;;;;;;9.73;6.13;;;17.60;99.90;;;;;;4955195;28;20046;-69
2022/06/28 05:20:25;;;;;;;7.20;5.75;;;17.70;99.90;;;;;;4955573;28;20038;-69
2022/06/28 05:22:50;;;;;;;9.20;5.63;;;17.70;99.90;;;;;;4957333;28;20027;-69
2022/06/28 05:25:16;;;;;;;8.05;6.30;;;17.80;99.90;;;;;;4961508;28;20038;-69
2022/06/28 05:27:41;;;;;;;6.72;5.60;;;17.80;99.90;;;;;;4958366;28;20042;-69
2022/06/28 05:30:08;;;;;;;10.40;5.80;;;17.90;99.90;;;;;;4954491;28;20031;-69
2022/06/28 05:32:33;;;;;;;9.85;6.55;;;18.00;99.90;;;;;;4958746;28;20102;-70
2022/06/28 05:34:59;;;;;;;8.18;5.95;;;18.10;99.90;;;;;;4967319;28;20105;-69
2022/06/28 05:37:24;;;;;;;8.23;5.38;;;18.20;99.90;;;;;;4964735;28;20114;-69
2022/06/28 05:39:50;;;;;;;6.45;4.97;;;18.30;99.90;;;;;;4963900;28;20035;-69
2022/06/28 05:42:16;;;;;;;8.77;5.28;;;18.60;99.90;;;;;;4966897;28;20026;-69
2022/06/28 05:44:42;;;;;;;10.55;5.22;;;18.80;99.90;;;;;;4960425;28;20061;-69
2022/06/28 05:47:08;;;;;;;8.90;5.53;;;18.90;99.90;;;;;;4943361;28;20026;-69
2022/06/28 05:49:33;;;;;;;7.85;4.82;;;18.90;99.90;;;;;;4950674;28;20467;-69
2022/06/28 05:51:59;;;;;;;14.30;5.18;;;18.80;99.90;;;;;;4962186;28;20019;-68
2022/06/28 05:54:24;;;;;;;5.72;4.22;;;18.80;99.90;;;;;;4958511;28;20042;-68
2022/06/28 05:56:50;;;;;;;6.97;4.70;;;18.70;99.90;;;;;;4954951;28;20019;-68
2022/06/28 05:59:16;;;;;;;6.13;4.43;;;18.80;99.90;;;;;;4955148;29;20047;-68
2022/06/28 06:01:41;;;;;;;5.72;3.80;;;18.80;99.90;;;;;;4954742;29;20027;-68
2022/06/28 06:04:07;;;;;;;5.95;4.20;;;18.90;99.90;;;;;;4955055;28;20482;-69
2022/06/28 06:06:33;;;;;;;9.15;5.13;;;18.90;99.90;;;;;;4954966;28;20019;-68
2022/06/28 06:08:59;;;;;;;7.13;4.20;;;18.90;99.90;;;;;;4954823;28;20027;-69
2022/06/28 06:11:25;;;;;;;5.10;3.80;;;19.00;99.90;;;;;;4953794;29;20428;-69
2022/06/28 06:13:50;;;;;;;5.45;4.40;;;19.10;99.90;;;;;;4955014;29;20030;-69
2022/06/28 06:16:16;;;;;;;8.35;4.70;;;19.10;99.90;;;;;;4967627;28;20424;-69
2022/06/28 06:18:42;;;;;;;7.13;4.60;;;19.10;99.90;;;;;;4956866;28;20094;-68
2022/06/28 06:21:08;;;;;;;6.10;4.45;;;19.10;99.90;;;;;;4950355;28;20075;-68
2022/06/28 06:23:34;;;;;;;7.65;4.40;;;19.00;99.90;;;;;;4955811;28;20023;-69
2022/06/28 06:26:00;;;;;;;6.40;4.80;;;19.00;99.90;;;;;;4952442;28;20125;-69
2022/06/28 06:28:26;;;;;;;6.30;3.95;;;19.00;99.90;;;;;;4952493;28;20027;-69
2022/06/28 06:30:52;;;;;;;7.07;4.38;;;19.00;99.90;;;;;;4957470;28;20054;-69
2022/06/28 06:33:17;;;;;;;5.15;4.32;;;19.00;99.90;;;;;;4961485;28;20392;-69
2022/06/28 06:35:43;;;;;;;5.60;4.80;;;19.00;99.90;;;;;;4955304;28;20031;-69
2022/06/28 06:38:08;;;;;;;5.53;4.80;;;18.90;99.90;;;;;;4949868;28;20405;-68
2022/06/28 06:40:36;;;;;;;7.13;4.43;;;19.00;99.90;;;;;;4952837;28;20462;-68
2022/06/28 06:43:02;;;;;;;7.20;4.32;;;18.90;99.90;;;;;;4952456;28;20015;-68
2022/06/28 06:45:28;;;;;;;7.05;4.45;;;18.90;99.90;;;;;;4954843;28;20102;-69
2022/06/28 06:47:53;;;;;;;6.80;4.28;;;19.00;99.90;;;;;;4954299;28;20262;-69
2022/06/28 06:50:20;;;;;;;7.03;4.68;;;19.00;99.90;;;;;;4956162;28;20101;-68
2022/06/28 06:52:45;;;;;;;6.25;4.35;;;19.00;99.90;;;;;;4960717;28;20023;-68
2022/06/28 06:55:11;;;;;;;5.88;4.80;;;19.00;99.90;;;;;;4965994;28;20372;-68
2022/06/28 06:57:37;;;;;;;5.97;3.88;;;19.00;99.90;;;;;;4958901;28;20049;-68
2022/06/28 07:00:04;;;;;;;5.75;4.45;;;19.10;99.90;;;;;;4959155;28;20038;-69
2022/06/28 07:02:30;;;;;;;5.50;4.60;;;19.30;99.90;;;;;;4951151;28;20075;-68
2022/06/28 07:04:55;;;;;;;5.30;4.53;;;19.50;99.90;;;;;;4951912;28;20019;-69
2022/06/28 07:07:22;;;;;;;8.18;4.68;;;19.60;99.90;;;;;;4951939;28;20106;-68
2022/06/28 07:09:49;;;;;;;8.38;4.22;;;19.70;99.90;;;;;;4957648;28;20038;-68
2022/06/28 07:12:14;;;;;;;4.22;3.83;;;19.80;99.90;;;;;;4950621;28;20380;-67
2022/06/28 07:14:40;;;;;;;7.35;5.32;;;19.80;99.90;;;;;;4951131;28;20101;-68
2022/06/28 07:17:05;;;;;;;6.22;4.80;;;19.80;99.90;;;;;;4956880;28;20030;-68
2022/06/28 07:19:31;;;;;;;5.85;4.63;;;19.80;99.90;;;;;;4952443;28;20062;-69
2022/06/28 07:21:57;;;;;;;5.30;4.55;;;19.80;99.90;;;;;;4963026;28;20031;-69
2022/06/28 07:24:22;;;;;;;6.72;3.60;;;19.80;99.90;;;;;;4955059;28;20461;-68
2022/06/28 07:26:49;;;;;;;4.75;4.07;;;19.80;99.90;;;;;;4955869;28;20035;-68
2022/06/28 07:29:14;;;;;;;4.80;3.65;;;19.80;99.90;;;;;;4958875;28;20046;-68
2022/06/28 07:31:41;;;;;;;6.53;4.25;;;19.90;99.90;;;;;;4958796;28;20027;-68
2022/06/28 07:34:08;;;;;;;4.72;4.03;;;20.10;99.90;;;;;;4963645;28;20029;-68
2022/06/28 07:36:33;;;;;;;5.97;3.65;;;20.20;99.90;;;;;;4961022;28;21639;-68
2022/06/28 07:38:59;;;;;;;8.20;4.35;;;20.30;99.90;;;;;;4958562;28;20035;-69
2022/06/28 07:41:25;;;;;;;4.28;3.40;;;20.40;99.90;;;;;;4957127;28;20027;-68
2022/06/28 07:43:53;;;;;;;7.43;3.75;;;20.30;99.90;;;;;;4942275;28;20034;-68
2022/06/28 07:46:20;;;;;;;3.92;3.20;;;20.40;99.90;;;;;;4954349;28;20501;-69
2022/06/28 07:48:46;;;;;;;6.43;3.17;;;20.40;99.90;;;;;;4954020;28;20046;-68
2022/06/28 07:54:04;;;;;;;5.32;3.53;;;20.60;99.90;;;;;;4923482;29;20039;-68
2022/06/28 07:56:29;;;;;;;6.20;3.15;;;20.80;99.90;;;;;;4953397;28;20027;-68
2022/06/28 07:58:55;;;;;;;6.93;3.85;;;20.90;99.90;;;;;;4964827;28;20849;-68
2022/06/28 08:01:21;;;;;;;4.97;3.20;;;21.10;99.90;;;;;;4976085;28;20034;-69
2022/06/28 08:03:46;;;;;;;4.28;3.30;;;21.20;99.90;;;;;;4957437;29;20039;-68
2022/06/28 08:06:12;;;;;;;5.78;3.95;;;21.20;99.90;;;;;;4957371;29;20029;-69
2022/06/28 08:08:37;;;;;;;5.13;3.60;;;21.20;99.90;;;;;;4957288;29;20035;-76
2022/06/28 08:11:03;;;;;;;5.38;3.92;;;21.20;99.90;;;;;;4957150;29;20102;-73
2022/06/28 08:13:29;;;;;;;4.80;3.47;;;21.30;99.90;;;;;;4956831;28;20082;-73
2022/06/28 08:15:54;;;;;;;4.78;3.00;;;21.30;99.90;;;;;;4956771;28;20074;-73
2022/06/28 08:18:20;;;;;;;5.03;2.92;;;21.20;99.90;;;;;;4956886;28;20102;-74
2022/06/28 08:20:46;;;;;;;4.50;2.65;;;21.30;99.90;;;;;;4970046;28;20102;-74
2022/06/28 08:23:12;;;;;;;3.75;2.97;;;21.40;99.90;;;;;;4951561;29;20037;-74
2022/06/28 08:25:38;;;;;;;4.25;2.70;;;21.50;99.90;;;;;;4956874;29;20443;-74
2022/06/28 08:28:04;;;;;;;4.10;2.67;;;21.60;99.90;;;;;;4962212;28;20109;-74
2022/06/28 08:30:30;;;;;;;4.70;2.90;;;21.70;99.90;;;;;;4964610;28;20530;-74
2022/06/28 08:32:56;;;;;;;4.45;2.53;;;21.70;99.90;;;;;;4956471;28;20027;-74
2022/06/28 08:35:22;;;;;;;6.35;2.58;;;21.80;99.90;;;;;;4956596;28;20031;-74
2022/06/28 08:37:47;;;;;;;3.45;2.75;;;21.80;99.90;;;;;;4954600;28;20039;-74
2022/06/28 08:40:13;;;;;;;4.32;2.40;;;21.80;99.90;;;;;;4968549;28;20038;-74
2022/06/28 08:42:48;;;;;;;3.95;2.45;;;21.80;99.90;;;;;;4956519;29;20023;-73
2022/06/28 08:45:16;;;;;;;6.28;2.33;;;21.80;99.90;;;;;;4943905;29;20019;-73
2022/06/28 08:47:43;;;;;;;5.80;2.40;;;22.00;99.90;;;;;;4969533;28;20504;-73
2022/06/28 08:50:17;;;;;;;2.50;2.00;;;22.00;99.90;;;;;;4956992;28;20344;-73
2022/06/28 08:52:43;;;;;;;4.57;2.20;;;22.10;99.90;;;;;;4956393;29;20398;-73
2022/06/28 08:55:10;;;;;;;4.13;2.45;;;22.10;99.90;;;;;;4956346;28;20030;-73
2022/06/28 08:57:39;;;;;;;3.85;2.33;;;22.10;99.90;;;;;;4966652;28;20082;-73
2022/06/28 09:00:08;;;;;;;2.88;2.10;;;22.00;99.90;;;;;;4941965;29;20369;-73
2022/06/28 09:02:34;;;;;;;2.50;2.00;;;21.90;99.90;;;;;;4954930;28;20079;-73
2022/06/28 09:05:01;;;;;;;3.47;2.17;;;22.00;99.90;;;;;;4956015;29;20019;-73
2022/06/28 09:07:27;;;;;;;3.85;2.20;;;22.10;99.90;;;;;;4955688;28;20032;-73
2022/06/28 09:09:53;;;;;;;2.53;2.13;;;22.20;99.90;;;;;;4938347;29;20031;-73
2022/06/28 09:12:20;;;;;;;2.50;2.20;;;22.20;99.90;;;;;;4948063;28;20026;-73
2022/06/28 09:14:46;;;;;;;2.42;1.88;;;22.40;99.90;;;;;;4974804;28;20407;-73
2022/06/28 09:17:19;;;;;;;2.45;2.10;;;22.40;99.90;;;;;;4957420;28;20387;-74
2022/06/28 09:19:45;;;;;;;5.50;2.15;;;22.30;99.90;;;;;;4955687;29;20047;-73
2022/06/28 09:22:30;;;;;;;3.17;1.95;;;22.20;99.90;;;;;;4950217;28;20071;-73
2022/06/28 09:24:55;;;;;;;3.45;1.75;;;22.20;99.90;;;;;;4954261;29;20035;-73
2022/06/28 09:27:31;;;;;;;2.92;2.00;;;22.30;99.90;;;;;;4968646;28;20054;-73
2022/06/28 09:29:57;;;;;;;2.60;1.90;;;22.60;99.90;;;;;;4943067;29;20035;-73
2022/06/28 09:32:31;;;;;;;3.67;1.65;;;22.80;99.90;;;;;;4955530;29;20050;-74
2022/06/28 09:34:59;;;;;;;3.58;1.90;;;22.90;99.90;;;;;;4942127;29;20368;-73
2022/06/28 09:37:48;;;;;;;5.82;1.95;;;23.00;99.90;;;;;;4955255;29;20035;-73
2022/06/28 09:40:19;;;;;;;3.42;1.80;;;23.00;99.90;;;;;;4943717;29;20028;-73
2022/06/28 09:42:47;;;;;;;4.72;1.83;;;22.90;99.90;;;;;;4955000;29;20050;-73
2022/06/28 09:45:16;;;;;;;4.85;1.50;;;22.90;99.90;;;;;;4961766;28;20553;-73
2022/06/28 09:47:48;;;;;;;2.50;1.60;;;22.90;99.90;;;;;;4961468;28;20031;-73
2022/06/28 09:50:20;;;;;;;3.60;1.83;;;22.90;99.90;;;;;;4936010;29;20020;-73
2022/06/28 09:52:46;;;;;;;2.65;1.90;;;22.80;99.90;;;;;;4948171;29;20031;-73
2022/06/28 09:55:16;;;;;;;2.50;1.80;;;22.80;99.90;;;;;;4959575;28;20106;-73
2022/06/28 09:57:44;;;;;;;5.88;1.63;;;22.90;99.90;;;;;;4962823;28;20054;-73
2022/06/28 10:00:10;;;;;;;5.43;1.70;;;22.80;99.90;;;;;;4968342;28;20414;-73
2022/06/28 10:02:35;;;;;;;4.43;1.77;;;22.90;99.90;;;;;;4954655;29;20023;-73
2022/06/28 10:05:01;;;;;;;3.05;1.75;;;23.00;99.90;;;;;;4954681;28;20028;-74
2022/06/28 10:07:34;;;;;;;3.78;1.60;;;23.10;99.90;;;;;;4954676;28;20031;-73
2022/06/28 10:10:00;;;;;;;4.72;1.88;;;23.20;99.90;;;;;;4955353;28;20106;-73
2022/06/28 10:15:20;;;;;;;2.70;1.65;;;23.30;99.90;;;;;;4954332;29;20038;-74
2022/06/28 10:17:54;;;;;;;3.75;1.90;;;23.30;99.90;;;;;;4954628;29;20031;-73
2022/06/28 10:20:28;;;;;;;3.83;1.90;;;23.10;99.90;;;;;;4954130;28;20035;-73
2022/06/28 10:23:33;;;;;;;2.75;1.65;;;23.10;99.90;;;;;;4947757;28;20049;-74
2022/06/28 10:26:09;;;;;;;2.28;1.67;;;22.90;99.90;;;;;;4953392;28;20412;-74
2022/06/28 10:28:37;;;;;;;2.58;1.70;;;22.90;99.90;;;;;;4964160;28;20110;-74
2022/06/28 10:31:21;;;;;;;3.22;1.98;;;23.00;99.90;;;;;;4953732;29;20533;-74
2022/06/28 10:33:48;;;;;;;4.35;1.83;;;22.90;99.90;;;;;;4954791;28;20069;-69
2022/06/28 10:36:15;;;;;;;3.70;1.75;;;22.90;99.90;;;;;;4954802;29;20206;-68
2022/06/28 10:39:29;;;;;;;3.40;1.80;;;22.70;99.90;;;;;;4947028;29;20024;-68
2022/06/28 10:41:58;;;;;;;3.25;2.00;;;22.60;99.90;;;;;;4877182;29;20037;-69
2022/06/28 10:44:30;;;;;;;5.88;2.05;;;22.60;99.90;;;;;;4890353;29;20033;-69
2022/06/28 10:47:01;;;;;;;3.42;1.95;;;22.60;99.90;;;;;;4918554;29;20385;-69
2022/06/28 10:49:54;;;;;;;2.85;1.92;;;22.60;99.90;;;;;;4937354;29;20064;-69
2022/06/28 10:52:33;;;;;;;4.38;2.22;;;22.70;99.90;;;;;;4944399;29;20114;-68
2022/06/28 10:54:58;;;;;;;5.75;2.30;;;22.60;99.90;;;;;;4954451;28;20019;-69
2022/06/28 10:57:24;;;;;;;3.72;1.80;;;22.60;99.90;;;;;;4954263;29;20042;-70
2022/06/28 10:59:51;;;;;;;4.13;1.80;;;22.50;99.90;;;;;;4954304;29;20023;-69
2022/06/28 11:02:18;;;;;;;3.30;1.77;;;22.40;99.90;;;;;;4952960;29;20465;-68
2022/06/28 11:04:45;;;;;;;3.28;1.80;;;22.40;99.90;;;;;;4954223;29;20038;-68
2022/06/28 11:07:31;;;;;;;5.13;2.50;;;22.30;99.90;;;;;;4954175;29;20038;-68
2022/06/28 11:09:59;;;;;;;3.22;2.08;;;22.20;99.90;;;;;;4955067;28;20054;-68
2022/06/28 11:12:28;;;;;;;7.32;2.10;;;22.20;99.90;;;;;;4954551;29;20028;-68
2022/06/28 11:14:56;;;;;;;6.13;2.08;;;22.00;99.90;;;;;;4936671;29;20027;-74
2022/06/28 11:17:33;;;;;;;4.38;2.03;;;22.00;99.90;;;;;;4956569;28;20439;-74
2022/06/28 11:20:14;;;;;;;5.45;1.98;;;21.90;99.90;;;;;;4954663;28;20177;-74
2022/06/28 11:22:41;;;;;;;6.53;2.05;;;21.90;99.90;;;;;;4956244;28;20021;-74
2022/06/28 11:25:15;;;;;;;5.50;2.33;;;21.80;99.90;;;;;;4955098;28;20016;-74
2022/06/28 11:27:51;;;;;;;5.05;2.20;;;21.70;99.90;;;;;;4941468;28;20055;-74
2022/06/28 11:30:18;;;;;;;3.90;2.20;;;21.70;99.90;;;;;;4950921;28;20038;-75
2022/06/28 11:32:48;;;;;;;5.80;2.10;;;21.70;99.90;;;;;;4959365;28;20031;-75
2022/06/28 11:35:32;;;;;;;4.65;2.10;;;21.70;99.90;;;;;;4961185;28;20026;-75
2022/06/28 11:38:02;;;;;;;4.25;2.10;;;21.60;99.90;;;;;;4959093;28;20495;-75
2022/06/28 11:40:41;;;;;;;5.60;2.40;;;21.60;99.90;;;;;;4956201;28;20039;-75
2022/06/28 11:43:12;;;;;;;4.70;2.25;;;21.50;99.90;;;;;;4960157;28;20340;-75
2022/06/28 11:45:43;;;;;;;5.00;2.38;;;21.40;99.90;;;;;;4948169;28;20384;-75
2022/06/28 11:48:16;;;;;;;5.78;2.50;;;21.30;99.90;;;;;;4952294;28;20031;-75
2022/06/28 11:50:43;;;;;;;4.10;2.40;;;21.20;99.90;;;;;;4965166;28;20034;-75
2022/06/28 11:53:10;;;;;;;3.30;2.20;;;21.20;99.90;;;;;;4957135;28;20465;-75
2022/06/28 11:55:46;;;;;;;8.75;2.38;;;21.10;99.90;;;;;;4943348;28;20050;-76
2022/06/28 11:58:37;;;;;;;5.95;2.50;;;21.10;99.90;;;;;;4954671;28;20027;-76
2022/06/28 12:01:05;;;;;;;7.80;2.95;;;21.10;99.90;;;;;;4950414;28;20035;-76
2022/06/28 12:03:32;;;;;;;4.82;2.55;;;21.00;99.90;;;;;;4946578;28;20491;-76
2022/06/28 12:06:00;;;;;;;3.63;2.33;;;21.00;99.90;;;;;;4950263;28;20078;-76
2022/06/28 12:08:50;;;;;;;2.95;2.30;;;21.00;99.90;;;;;;4949470;28;20110;-76
2022/06/28 12:11:27;;;;;;;3.35;2.50;;;21.00;99.90;;;;;;4947882;28;20106;-76
2022/06/28 12:14:00;;;;;;;3.28;2.33;;;20.90;99.90;;;;;;4949992;28;20047;-76
2022/06/28 12:16:33;;;;;;;4.40;2.22;;;20.90;99.90;;;;;;4940073;28;20035;-77
2022/06/28 12:19:03;;;;;;;4.38;2.50;;;20.90;99.90;;;;;;4954091;28;20171;-76
2022/06/28 12:21:29;;;;;;;3.30;2.15;;;20.80;99.90;;;;;;4954615;28;20408;-76
2022/06/28 12:23:56;;;;;;;3.17;2.05;;;20.70;99.90;;;;;;4947992;28;20019;-76
2022/06/28 12:26:41;;;;;;;3.42;2.40;;;20.70;99.90;;;;;;4954553;28;20492;-76
2022/06/28 12:29:06;;;;;;;5.07;2.40;;;20.70;99.90;;;;;;4954944;28;20392;-76
2022/06/28 12:31:32;;;;;;;5.05;2.38;;;20.70;99.90;;;;;;4955068;29;20035;-76
2022/06/28 12:33:58;;;;;;;4.13;2.80;;;20.60;99.90;;;;;;4954925;28;20475;-76
2022/06/28 12:36:23;;;;;;;5.30;2.83;;;20.70;99.90;;;;;;4954594;29;20038;-76
2022/06/28 12:38:51;;;;;;;4.38;2.55;;;20.70;99.90;;;;;;4954812;28;20079;-76
2022/06/28 12:41:17;;;;;;;5.05;2.72;;;20.70;99.90;;;;;;4953208;29;20036;-76
2022/06/28 12:43:42;;;;;;;5.22;2.83;;;20.70;99.90;;;;;;4954134;28;20020;-74
2022/06/28 12:46:08;;;;;;;5.60;3.17;;;20.70;99.90;;;;;;4953005;28;20388;-75
2022/06/28 12:48:33;;;;;;;5.80;2.38;;;20.80;99.90;;;;;;4954629;28;20103;-75
2022/06/28 12:50:59;;;;;;;7.75;2.60;;;20.80;99.90;;;;;;4953443;28;20034;-74
2022/06/28 12:53:25;;;;;;;6.03;2.30;;;20.90;99.90;;;;;;4954317;28;20043;-75
2022/06/28 12:55:51;;;;;;;5.88;2.50;;;20.90;99.90;;;;;;4954646;28;20058;-75
2022/06/28 12:58:16;;;;;;;3.75;2.47;;;20.90;99.90;;;;;;4954479;28;20036;-75
2022/06/28 13:00:42;;;;;;;3.28;2.40;;;20.90;99.90;;;;;;4954401;29;20035;-75
2022/06/28 13:03:08;;;;;;;5.07;2.58;;;20.90;99.90;;;;;;4954062;28;20023;-75